sensor_id;sensor_type;location;lat;lon;timestamp;temperature;humidity
63771;DHT22;60282;43.862;18.430;2023-04-29T00:01:25;12.80;99.90
63771;DHT22;60282;43.862;18.430;2023-04-29T00:03:51;12.80;99.90
63771;DHT22;60282;43.862;18.430;2023-04-29T00:06:17;12.80;99.90
63771;DHT22;60282;43.862;18.430;2023-04-29T00:08:43;12.80;99.90
63771;DHT22;60282;43.862;18.430;2023-04-29T00:11:09;12.80;99.90
63771;DHT22;60282;43.862;18.430;2023-04-29T00:13:36;12.70;99.90
63771;DHT22;60282;43.862;18.430;2023-04-29T00:16:04;12.70;99.90
63771;DHT22;60282;43.862;18.430;2023-04-29T00:18:31;12.70;99.90
63771;DHT22;60282;43.862;18.430;2023-04-29T00:20:57;12.70;99.90
63771;DHT22;60282;43.862;18.430;2023-04-29T00:23:23;12.60;99.90
63771;DHT22;60282;43.862;18.430;2023-04-29T00:25:49;12.60;99.90
63771;DHT22;60282;43.862;18.430;2023-04-29T00:28:21;12.60;99.90
63771;DHT22;60282;43.862;18.430;2023-04-29T00:30:46;12.60;99.90
63771;DHT22;60282;43.862;18.430;2023-04-29T00:33:12;12.60;99.90
63771;DHT22;60282;43.862;18.430;2023-04-29T00:35:38;12.60;99.90
63771;DHT22;60282;43.862;18.430;2023-04-29T00:38:04;12.60;99.90
63771;DHT22;60282;43.862;18.430;2023-04-29T00:40:29;12.60;99.90
63771;DHT22;60282;43.862;18.430;2023-04-29T00:42:55;12.60;99.90
63771;DHT22;60282;43.862;18.430;2023-04-29T00:45:21;12.50;99.90
63771;DHT22;60282;43.862;18.430;2023-04-29T00:47:48;12.60;99.90
63771;DHT22;60282;43.862;18.430;2023-04-29T00:50:14;12.60;99.90
63771;DHT22;60282;43.862;18.430;2023-04-29T00:52:41;12.50;99.90
63771;DHT22;60282;43.862;18.430;2023-04-29T00:55:07;12.50;99.90
63771;DHT22;60282;43.862;18.430;2023-04-29T00:57:35;12.50;99.90
63771;DHT22;60282;43.862;18.430;2023-04-29T01:00:00;12.50;99.90
63771;DHT22;60282;43.862;18.430;2023-04-29T01:02:27;12.60;99.90
63771;DHT22;60282;43.862;18.430;2023-04-29T01:04:53;12.60;99.90
63771;DHT22;60282;43.862;18.430;2023-04-29T01:07:32;12.50;99.90
63771;DHT22;60282;43.862;18.430;2023-04-29T01:13:13;12.50;99.90
63771;DHT22;60282;43.862;18.430;2023-04-29T01:16:01;12.50;99.90
63771;DHT22;60282;43.862;18.430;2023-04-29T01:18:53;12.50;99.90
63771;DHT22;60282;43.862;18.430;2023-04-29T01:21:20;12.50;99.90
63771;DHT22;60282;43.862;18.430;2023-04-29T01:23:47;12.50;99.90
63771;DHT22;60282;43.862;18.430;2023-04-29T01:26:20;12.40;99.90
63771;DHT22;60282;43.862;18.430;2023-04-29T01:28:53;12.40;99.90
63771;DHT22;60282;43.862;18.430;2023-04-29T01:31:40;12.40;99.90
63771;DHT22;60282;43.862;18.430;2023-04-29T01:34:11;12.40;99.90
63771;DHT22;60282;43.862;18.430;2023-04-29T01:39:32;12.30;99.90
63771;DHT22;60282;43.862;18.430;2023-04-29T01:44:40;12.30;99.90
63771;DHT22;60282;43.862;18.430;2023-04-29T01:47:08;11.20;99.90
63771;DHT22;60282;43.862;18.430;2023-04-29T01:49:35;12.30;99.90
63771;DHT22;60282;43.862;18.430;2023-04-29T01:52:01;12.30;99.90
63771;DHT22;60282;43.862;18.430;2023-04-29T01:54:28;12.30;99.90
63771;DHT22;60282;43.862;18.430;2023-04-29T01:56:53;12.30;99.90
63771;DHT22;60282;43.862;18.430;2023-04-29T01:59:21;12.30;99.90
63771;DHT22;60282;43.862;18.430;2023-04-29T02:01:47;12.30;99.90
63771;DHT22;60282;43.862;18.430;2023-04-29T02:04:13;12.30;99.90
63771;DHT22;60282;43.862;18.430;2023-04-29T02:06:39;12.30;99.90
63771;DHT22;60282;43.862;18.430;2023-04-29T02:09:04;12.30;99.90
63771;DHT22;60282;43.862;18.430;2023-04-29T02:11:30;12.30;99.90
63771;DHT22;60282;43.862;18.430;2023-04-29T02:13:56;12.30;99.90
63771;DHT22;60282;43.862;18.430;2023-04-29T02:16:21;12.30;99.90
63771;DHT22;60282;43.862;18.430;2023-04-29T02:18:49;12.30;99.90
63771;DHT22;60282;43.862;18.430;2023-04-29T02:21:15;12.30;99.90
63771;DHT22;60282;43.862;18.430;2023-04-29T02:23:40;12.30;99.90
63771;DHT22;60282;43.862;18.430;2023-04-29T02:26:06;12.30;99.90
63771;DHT22;60282;43.862;18.430;2023-04-29T02:28:34;12.30;99.90
63771;DHT22;60282;43.862;18.430;2023-04-29T02:31:00;12.30;99.90
63771;DHT22;60282;43.862;18.430;2023-04-29T02:33:25;12.30;99.90
63771;DHT22;60282;43.862;18.430;2023-04-29T02:35:51;12.30;99.90
63771;DHT22;60282;43.862;18.430;2023-04-29T02:38:18;12.30;99.90
63771;DHT22;60282;43.862;18.430;2023-04-29T02:40:45;12.30;99.90
63771;DHT22;60282;43.862;18.430;2023-04-29T02:43:11;12.30;99.90
63771;DHT22;60282;43.862;18.430;2023-04-29T02:45:38;12.30;99.90
63771;DHT22;60282;43.862;18.430;2023-04-29T02:48:05;12.30;99.90
63771;DHT22;60282;43.862;18.430;2023-04-29T02:50:30;12.30;99.90
63771;DHT22;60282;43.862;18.430;2023-04-29T02:52:57;12.20;99.90
63771;DHT22;60282;43.862;18.430;2023-04-29T02:55:23;12.30;99.90
63771;DHT22;60282;43.862;18.430;2023-04-29T02:57:49;12.30;99.90
63771;DHT22;60282;43.862;18.430;2023-04-29T03:00:14;12.20;99.90
63771;DHT22;60282;43.862;18.430;2023-04-29T03:02:40;12.20;99.90
63771;DHT22;60282;43.862;18.430;2023-04-29T03:05:06;12.30;99.90
63771;DHT22;60282;43.862;18.430;2023-04-29T03:07:32;12.20;99.90
63771;DHT22;60282;43.862;18.430;2023-04-29T03:09:58;12.20;99.90
63771;DHT22;60282;43.862;18.430;2023-04-29T03:12:24;12.10;99.90
63771;DHT22;60282;43.862;18.430;2023-04-29T03:14:51;12.00;99.90
63771;DHT22;60282;43.862;18.430;2023-04-29T03:17:17;12.00;99.90
63771;DHT22;60282;43.862;18.430;2023-04-29T03:19:43;12.00;99.90
63771;DHT22;60282;43.862;18.430;2023-04-29T03:22:09;12.00;99.90
63771;DHT22;60282;43.862;18.430;2023-04-29T03:24:38;12.00;99.90
63771;DHT22;60282;43.862;18.430;2023-04-29T03:27:04;12.10;99.90
63771;DHT22;60282;43.862;18.430;2023-04-29T03:29:30;12.00;99.90
63771;DHT22;60282;43.862;18.430;2023-04-29T03:31:56;12.00;99.90
63771;DHT22;60282;43.862;18.430;2023-04-29T03:34:22;12.00;99.90
63771;DHT22;60282;43.862;18.430;2023-04-29T03:36:49;12.00;99.90
63771;DHT22;60282;43.862;18.430;2023-04-29T03:39:16;12.00;99.90
63771;DHT22;60282;43.862;18.430;2023-04-29T03:41:42;12.00;99.90
63771;DHT22;60282;43.862;18.430;2023-04-29T03:44:08;12.00;99.90
63771;DHT22;60282;43.862;18.430;2023-04-29T03:46:34;12.00;99.90
63771;DHT22;60282;43.862;18.430;2023-04-29T03:48:59;11.90;99.90
63771;DHT22;60282;43.862;18.430;2023-04-29T03:51:25;11.90;99.90
63771;DHT22;60282;43.862;18.430;2023-04-29T03:53:53;11.90;99.90
63771;DHT22;60282;43.862;18.430;2023-04-29T03:56:19;12.00;99.90
63771;DHT22;60282;43.862;18.430;2023-04-29T03:58:45;12.00;99.90
63771;DHT22;60282;43.862;18.430;2023-04-29T04:01:11;12.00;99.90
63771;DHT22;60282;43.862;18.430;2023-04-29T04:03:37;11.90;99.90
63771;DHT22;60282;43.862;18.430;2023-04-29T04:06:03;11.90;99.90
63771;DHT22;60282;43.862;18.430;2023-04-29T04:08:29;11.60;99.90
63771;DHT22;60282;43.862;18.430;2023-04-29T04:10:55;11.90;99.90
63771;DHT22;60282;43.862;18.430;2023-04-29T04:13:28;11.90;99.90
63771;DHT22;60282;43.862;18.430;2023-04-29T04:15:54;11.90;99.90
63771;DHT22;60282;43.862;18.430;2023-04-29T04:18:19;12.00;99.90
63771;DHT22;60282;43.862;18.430;2023-04-29T04:20:45;12.00;99.90
63771;DHT22;60282;43.862;18.430;2023-04-29T04:23:12;12.00;99.90
63771;DHT22;60282;43.862;18.430;2023-04-29T04:25:37;12.00;99.90
63771;DHT22;60282;43.862;18.430;2023-04-29T04:28:03;12.00;99.90
63771;DHT22;60282;43.862;18.430;2023-04-29T04:30:29;12.00;99.90
63771;DHT22;60282;43.862;18.430;2023-04-29T04:32:55;12.00;99.90
63771;DHT22;60282;43.862;18.430;2023-04-29T04:35:20;12.10;99.90
63771;DHT22;60282;43.862;18.430;2023-04-29T04:37:46;12.10;99.90
63771;DHT22;60282;43.862;18.430;2023-04-29T04:40:12;12.00;99.90
63771;DHT22;60282;43.862;18.430;2023-04-29T04:42:38;12.10;99.90
63771;DHT22;60282;43.862;18.430;2023-04-29T04:45:05;12.10;99.90
63771;DHT22;60282;43.862;18.430;2023-04-29T04:47:31;12.10;99.90
63771;DHT22;60282;43.862;18.430;2023-04-29T04:49:57;12.10;99.90
63771;DHT22;60282;43.862;18.430;2023-04-29T04:52:23;12.10;99.90
63771;DHT22;60282;43.862;18.430;2023-04-29T04:54:49;12.10;99.90
63771;DHT22;60282;43.862;18.430;2023-04-29T04:57:15;12.10;99.90
63771;DHT22;60282;43.862;18.430;2023-04-29T04:59:41;12.20;99.90
63771;DHT22;60282;43.862;18.430;2023-04-29T05:02:07;12.10;99.90
63771;DHT22;60282;43.862;18.430;2023-04-29T05:04:33;12.20;99.90
63771;DHT22;60282;43.862;18.430;2023-04-29T05:06:59;12.20;99.90
63771;DHT22;60282;43.862;18.430;2023-04-29T05:09:24;12.20;99.90
63771;DHT22;60282;43.862;18.430;2023-04-29T05:11:51;12.20;99.90
63771;DHT22;60282;43.862;18.430;2023-04-29T05:14:17;12.30;99.90
63771;DHT22;60282;43.862;18.430;2023-04-29T05:16:43;12.30;99.90
63771;DHT22;60282;43.862;18.430;2023-04-29T05:19:11;12.40;99.90
63771;DHT22;60282;43.862;18.430;2023-04-29T05:21:36;12.40;99.90
63771;DHT22;60282;43.862;18.430;2023-04-29T05:24:02;12.40;99.90
63771;DHT22;60282;43.862;18.430;2023-04-29T05:26:28;12.40;99.90
63771;DHT22;60282;43.862;18.430;2023-04-29T05:28:54;12.50;99.90
63771;DHT22;60282;43.862;18.430;2023-04-29T05:31:20;12.50;99.90
63771;DHT22;60282;43.862;18.430;2023-04-29T05:33:46;12.60;99.90
63771;DHT22;60282;43.862;18.430;2023-04-29T05:36:12;12.60;99.90
63771;DHT22;60282;43.862;18.430;2023-04-29T05:38:37;12.50;99.90
63771;DHT22;60282;43.862;18.430;2023-04-29T05:41:03;12.60;99.90
63771;DHT22;60282;43.862;18.430;2023-04-29T05:43:30;12.60;99.90
63771;DHT22;60282;43.862;18.430;2023-04-29T05:45:56;12.60;99.90
63771;DHT22;60282;43.862;18.430;2023-04-29T05:48:21;12.70;99.90
63771;DHT22;60282;43.862;18.430;2023-04-29T05:50:48;12.80;99.90
63771;DHT22;60282;43.862;18.430;2023-04-29T05:53:13;12.80;99.90
63771;DHT22;60282;43.862;18.430;2023-04-29T05:55:39;12.90;99.90
63771;DHT22;60282;43.862;18.430;2023-04-29T05:58:09;12.90;99.90
63771;DHT22;60282;43.862;18.430;2023-04-29T06:00:34;12.90;99.90
63771;DHT22;60282;43.862;18.430;2023-04-29T06:03:00;13.00;99.90
63771;DHT22;60282;43.862;18.430;2023-04-29T06:05:27;14.70;99.90
63771;DHT22;60282;43.862;18.430;2023-04-29T06:07:53;13.00;99.90
63771;DHT22;60282;43.862;18.430;2023-04-29T06:10:19;13.10;99.90
63771;DHT22;60282;43.862;18.430;2023-04-29T06:12:44;13.10;99.90
63771;DHT22;60282;43.862;18.430;2023-04-29T06:15:11;13.10;99.90
63771;DHT22;60282;43.862;18.430;2023-04-29T06:17:36;13.20;99.90
63771;DHT22;60282;43.862;18.430;2023-04-29T06:20:02;13.20;99.90
63771;DHT22;60282;43.862;18.430;2023-04-29T06:22:28;13.30;99.90
63771;DHT22;60282;43.862;18.430;2023-04-29T06:24:55;13.40;99.90
63771;DHT22;60282;43.862;18.430;2023-04-29T06:27:20;13.50;99.90
63771;DHT22;60282;43.862;18.430;2023-04-29T06:29:46;13.60;99.90
63771;DHT22;60282;43.862;18.430;2023-04-29T06:32:12;13.70;99.90
63771;DHT22;60282;43.862;18.430;2023-04-29T06:34:38;13.80;99.90
63771;DHT22;60282;43.862;18.430;2023-04-29T06:37:04;13.80;99.90
63771;DHT22;60282;43.862;18.430;2023-04-29T06:39:30;13.80;99.90
63771;DHT22;60282;43.862;18.430;2023-04-29T06:41:56;13.80;99.90
63771;DHT22;60282;43.862;18.430;2023-04-29T06:44:23;13.90;99.90
63771;DHT22;60282;43.862;18.430;2023-04-29T06:46:49;13.90;99.90
63771;DHT22;60282;43.862;18.430;2023-04-29T06:49:14;13.90;99.90
63771;DHT22;60282;43.862;18.430;2023-04-29T06:51:40;14.00;99.90
63771;DHT22;60282;43.862;18.430;2023-04-29T06:54:07;13.70;99.90
63771;DHT22;60282;43.862;18.430;2023-04-29T06:56:33;14.10;99.90
63771;DHT22;60282;43.862;18.430;2023-04-29T06:58:58;14.20;99.90
63771;DHT22;60282;43.862;18.430;2023-04-29T07:01:24;14.40;99.90
63771;DHT22;60282;43.862;18.430;2023-04-29T07:03:50;14.40;99.90
63771;DHT22;60282;43.862;18.430;2023-04-29T07:06:16;14.50;99.90
63771;DHT22;60282;43.862;18.430;2023-04-29T07:08:42;14.50;99.90
63771;DHT22;60282;43.862;18.430;2023-04-29T07:11:08;14.60;99.90
63771;DHT22;60282;43.862;18.430;2023-04-29T07:16:00;14.50;99.90
63771;DHT22;60282;43.862;18.430;2023-04-29T07:18:25;14.50;99.90
63771;DHT22;60282;43.862;18.430;2023-04-29T07:20:51;14.60;99.90
63771;DHT22;60282;43.862;18.430;2023-04-29T07:23:17;14.60;99.90
63771;DHT22;60282;43.862;18.430;2023-04-29T07:25:43;14.60;99.90
63771;DHT22;60282;43.862;18.430;2023-04-29T07:28:08;14.60;99.90
63771;DHT22;60282;43.862;18.430;2023-04-29T07:30:34;14.60;99.90
63771;DHT22;60282;43.862;18.430;2023-04-29T07:33:00;14.70;99.90
63771;DHT22;60282;43.862;18.430;2023-04-29T07:35:26;14.70;99.90
63771;DHT22;60282;43.862;18.430;2023-04-29T07:37:52;14.70;99.90
63771;DHT22;60282;43.862;18.430;2023-04-29T07:40:18;14.80;99.90
63771;DHT22;60282;43.862;18.430;2023-04-29T07:42:44;16.40;99.90
63771;DHT22;60282;43.862;18.430;2023-04-29T07:45:10;14.90;99.90
63771;DHT22;60282;43.862;18.430;2023-04-29T07:47:38;14.90;99.90
63771;DHT22;60282;43.862;18.430;2023-04-29T07:50:04;16.60;99.90
63771;DHT22;60282;43.862;18.430;2023-04-29T07:52:30;15.00;99.90
63771;DHT22;60282;43.862;18.430;2023-04-29T07:54:55;15.00;99.90
63771;DHT22;60282;43.862;18.430;2023-04-29T07:57:21;15.00;99.90
63771;DHT22;60282;43.862;18.430;2023-04-29T07:59:52;15.00;99.90
63771;DHT22;60282;43.862;18.430;2023-04-29T08:02:17;15.00;99.90
63771;DHT22;60282;43.862;18.430;2023-04-29T08:04:43;15.10;99.90
63771;DHT22;60282;43.862;18.430;2023-04-29T08:07:09;15.10;99.90
63771;DHT22;60282;43.862;18.430;2023-04-29T08:09:35;15.10;99.90
63771;DHT22;60282;43.862;18.430;2023-04-29T08:12:01;15.10;99.90
63771;DHT22;60282;43.862;18.430;2023-04-29T08:14:27;15.20;99.90
63771;DHT22;60282;43.862;18.430;2023-04-29T08:16:52;15.20;99.90
63771;DHT22;60282;43.862;18.430;2023-04-29T08:19:19;15.30;99.90
63771;DHT22;60282;43.862;18.430;2023-04-29T08:21:46;15.40;99.90
63771;DHT22;60282;43.862;18.430;2023-04-29T08:24:12;15.50;99.90
63771;DHT22;60282;43.862;18.430;2023-04-29T08:26:40;15.50;99.90
63771;DHT22;60282;43.862;18.430;2023-04-29T08:29:07;15.50;99.90
63771;DHT22;60282;43.862;18.430;2023-04-29T08:31:32;15.60;99.90
63771;DHT22;60282;43.862;18.430;2023-04-29T08:33:59;15.50;99.90
63771;DHT22;60282;43.862;18.430;2023-04-29T08:36:25;15.50;99.90
63771;DHT22;60282;43.862;18.430;2023-04-29T08:38:53;15.60;99.90
63771;DHT22;60282;43.862;18.430;2023-04-29T08:41:21;15.50;99.90
63771;DHT22;60282;43.862;18.430;2023-04-29T08:43:47;15.50;99.90
63771;DHT22;60282;43.862;18.430;2023-04-29T08:46:13;15.60;99.90
63771;DHT22;60282;43.862;18.430;2023-04-29T08:48:39;15.60;99.90
63771;DHT22;60282;43.862;18.430;2023-04-29T08:51:11;15.60;99.90
63771;DHT22;60282;43.862;18.430;2023-04-29T08:53:37;15.70;99.90
63771;DHT22;60282;43.862;18.430;2023-04-29T08:56:08;15.70;99.90
63771;DHT22;60282;43.862;18.430;2023-04-29T08:58:38;15.70;99.90
63771;DHT22;60282;43.862;18.430;2023-04-29T09:01:09;15.80;99.90
63771;DHT22;60282;43.862;18.430;2023-04-29T09:03:53;15.90;99.90
63771;DHT22;60282;43.862;18.430;2023-04-29T09:06:21;16.00;99.90
63771;DHT22;60282;43.862;18.430;2023-04-29T09:08:47;16.10;99.90
63771;DHT22;60282;43.862;18.430;2023-04-29T09:11:13;16.20;99.90
63771;DHT22;60282;43.862;18.430;2023-04-29T09:13:40;16.40;99.90
63771;DHT22;60282;43.862;18.430;2023-04-29T09:16:11;16.50;99.90
63771;DHT22;60282;43.862;18.430;2023-04-29T09:18:42;16.50;99.90
63771;DHT22;60282;43.862;18.430;2023-04-29T09:21:18;16.70;99.90
63771;DHT22;60282;43.862;18.430;2023-04-29T09:23:45;16.70;99.90
63771;DHT22;60282;43.862;18.430;2023-04-29T09:26:12;16.80;99.90
63771;DHT22;60282;43.862;18.430;2023-04-29T09:28:37;16.90;99.90
63771;DHT22;60282;43.862;18.430;2023-04-29T09:31:06;17.00;99.90
63771;DHT22;60282;43.862;18.430;2023-04-29T09:33:51;17.00;99.90
63771;DHT22;60282;43.862;18.430;2023-04-29T09:36:51;17.10;99.90
63771;DHT22;60282;43.862;18.430;2023-04-29T09:39:22;17.30;99.90
63771;DHT22;60282;43.862;18.430;2023-04-29T09:44:21;17.60;99.90
63771;DHT22;60282;43.862;18.430;2023-04-29T09:47:07;17.90;99.90
63771;DHT22;60282;43.862;18.430;2023-04-29T09:49:42;18.20;99.90
63771;DHT22;60282;43.862;18.430;2023-04-29T09:52:14;18.40;99.90
63771;DHT22;60282;43.862;18.430;2023-04-29T09:54:42;18.70;99.90
63771;DHT22;60282;43.862;18.430;2023-04-29T09:57:11;18.90;99.10
63771;DHT22;60282;43.862;18.430;2023-04-29T09:59:38;19.20;98.00
63771;DHT22;60282;43.862;18.430;2023-04-29T10:02:15;19.50;95.00
63771;DHT22;60282;43.862;18.430;2023-04-29T10:04:45;19.70;92.80
63771;DHT22;60282;43.862;18.430;2023-04-29T10:07:15;20.00;93.90
63771;DHT22;60282;43.862;18.430;2023-04-29T10:09:41;20.30;93.10
63771;DHT22;60282;43.862;18.430;2023-04-29T10:12:09;20.50;92.40
63771;DHT22;60282;43.862;18.430;2023-04-29T10:14:41;20.60;90.20
63771;DHT22;60282;43.862;18.430;2023-04-29T10:17:33;20.90;87.90
63771;DHT22;60282;43.862;18.430;2023-04-29T10:20:04;21.00;84.10
63771;DHT22;60282;43.862;18.430;2023-04-29T10:22:51;21.10;81.50
63771;DHT22;60282;43.862;18.430;2023-04-29T10:25:19;21.20;80.50
63771;DHT22;60282;43.862;18.430;2023-04-29T10:27:46;21.40;79.10
63771;DHT22;60282;43.862;18.430;2023-04-29T10:30:14;21.40;75.70
63771;DHT22;60282;43.862;18.430;2023-04-29T10:32:44;21.60;75.80
63771;DHT22;60282;43.862;18.430;2023-04-29T10:35:11;21.90;74.80
63771;DHT22;60282;43.862;18.430;2023-04-29T10:37:43;22.30;72.70
63771;DHT22;60282;43.862;18.430;2023-04-29T10:40:26;22.60;71.70
63771;DHT22;60282;43.862;18.430;2023-04-29T10:42:53;22.80;71.20
63771;DHT22;60282;43.862;18.430;2023-04-29T10:45:30;22.80;68.70
63771;DHT22;60282;43.862;18.430;2023-04-29T10:53:15;22.70;69.40
63771;DHT22;60282;43.862;18.430;2023-04-29T10:55:45;22.90;69.10
63771;DHT22;60282;43.862;18.430;2023-04-29T11:01:00;22.80;66.80
63771;DHT22;60282;43.862;18.430;2023-04-29T11:03:48;22.30;66.50
63771;DHT22;60282;43.862;18.430;2023-04-29T11:06:19;22.40;69.80
63771;DHT22;60282;43.862;18.430;2023-04-29T11:08:44;22.60;70.50
63771;DHT22;60282;43.862;18.430;2023-04-29T11:11:12;22.90;68.40
63771;DHT22;60282;43.862;18.430;2023-04-29T11:13:40;23.10;67.00
63771;DHT22;60282;43.862;18.430;2023-04-29T11:16:07;23.20;65.60
63771;DHT22;60282;43.862;18.430;2023-04-29T11:18:34;23.30;65.80
63771;DHT22;60282;43.862;18.430;2023-04-29T11:23:30;23.50;67.50
63771;DHT22;60282;43.862;18.430;2023-04-29T11:25:56;23.40;64.30
63771;DHT22;60282;43.862;18.430;2023-04-29T11:28:23;23.20;63.70
63771;DHT22;60282;43.862;18.430;2023-04-29T11:30:52;23.00;63.40
63771;DHT22;60282;43.862;18.430;2023-04-29T11:33:21;22.70;64.70
63771;DHT22;60282;43.862;18.430;2023-04-29T11:35:47;22.50;64.90
63771;DHT22;60282;43.862;18.430;2023-04-29T11:38:13;22.40;65.50
63771;DHT22;60282;43.862;18.430;2023-04-29T11:40:48;22.50;65.80
63771;DHT22;60282;43.862;18.430;2023-04-29T11:43:18;22.50;65.10
63771;DHT22;60282;43.862;18.430;2023-04-29T11:45:49;22.70;65.20
63771;DHT22;60282;43.862;18.430;2023-04-29T11:48:23;23.00;64.50
63771;DHT22;60282;43.862;18.430;2023-04-29T11:50:56;23.20;64.50
63771;DHT22;60282;43.862;18.430;2023-04-29T11:53:25;23.30;64.40
63771;DHT22;60282;43.862;18.430;2023-04-29T11:55:52;23.40;63.60
63771;DHT22;60282;43.862;18.430;2023-04-29T11:58:22;23.40;63.50
63771;DHT22;60282;43.862;18.430;2023-04-29T12:00:49;23.80;63.60
63771;DHT22;60282;43.862;18.430;2023-04-29T12:03:18;23.80;63.20
63771;DHT22;60282;43.862;18.430;2023-04-29T12:05:50;24.10;63.10
63771;DHT22;60282;43.862;18.430;2023-04-29T12:08:20;24.00;63.80
63771;DHT22;60282;43.862;18.430;2023-04-29T12:10:47;24.40;63.10
63771;DHT22;60282;43.862;18.430;2023-04-29T12:13:13;24.70;63.10
63771;DHT22;60282;43.862;18.430;2023-04-29T12:15:39;25.00;61.60
63771;DHT22;60282;43.862;18.430;2023-04-29T12:18:05;25.40;62.20
63771;DHT22;60282;43.862;18.430;2023-04-29T12:20:31;25.40;62.00
63771;DHT22;60282;43.862;18.430;2023-04-29T12:23:13;25.80;61.30
63771;DHT22;60282;43.862;18.430;2023-04-29T12:25:40;26.40;60.10
63771;DHT22;60282;43.862;18.430;2023-04-29T12:28:14;27.00;60.40
63771;DHT22;60282;43.862;18.430;2023-04-29T12:30:40;27.20;58.20
63771;DHT22;60282;43.862;18.430;2023-04-29T12:33:09;27.70;58.80
63771;DHT22;60282;43.862;18.430;2023-04-29T12:35:36;27.80;57.70
63771;DHT22;60282;43.862;18.430;2023-04-29T12:38:02;28.10;58.10
63771;DHT22;60282;43.862;18.430;2023-04-29T12:40:28;28.10;56.40
63771;DHT22;60282;43.862;18.430;2023-04-29T12:42:53;28.10;57.20
63771;DHT22;60282;43.862;18.430;2023-04-29T12:45:30;28.20;56.50
63771;DHT22;60282;43.862;18.430;2023-04-29T12:47:57;27.80;57.40
63771;DHT22;60282;43.862;18.430;2023-04-29T12:50:37;27.60;56.40
63771;DHT22;60282;43.862;18.430;2023-04-29T12:53:07;26.90;57.40
63771;DHT22;60282;43.862;18.430;2023-04-29T12:55:34;27.20;58.30
63771;DHT22;60282;43.862;18.430;2023-04-29T12:58:01;27.80;59.00
63771;DHT22;60282;43.862;18.430;2023-04-29T13:00:27;28.50;56.40
63771;DHT22;60282;43.862;18.430;2023-04-29T13:02:53;28.80;55.40
63771;DHT22;60282;43.862;18.430;2023-04-29T13:05:18;28.80;55.20
63771;DHT22;60282;43.862;18.430;2023-04-29T13:07:44;28.60;55.30
63771;DHT22;60282;43.862;18.430;2023-04-29T13:10:10;28.40;54.90
63771;DHT22;60282;43.862;18.430;2023-04-29T13:12:39;28.20;55.00
63771;DHT22;60282;43.862;18.430;2023-04-29T13:15:06;28.00;55.40
63771;DHT22;60282;43.862;18.430;2023-04-29T13:17:34;28.10;55.20
63771;DHT22;60282;43.862;18.430;2023-04-29T13:20:04;27.60;55.50
63771;DHT22;60282;43.862;18.430;2023-04-29T13:22:30;27.20;56.50
63771;DHT22;60282;43.862;18.430;2023-04-29T13:24:57;26.70;57.70
63771;DHT22;60282;43.862;18.430;2023-04-29T13:27:22;26.30;57.30
63771;DHT22;60282;43.862;18.430;2023-04-29T13:29:48;25.70;57.80
63771;DHT22;60282;43.862;18.430;2023-04-29T13:32:14;25.30;58.40
63771;DHT22;60282;43.862;18.430;2023-04-29T13:34:41;25.10;59.10
63771;DHT22;60282;43.862;18.430;2023-04-29T13:37:10;24.70;58.80
63771;DHT22;60282;43.862;18.430;2023-04-29T13:39:36;24.70;59.40
63771;DHT22;60282;43.862;18.430;2023-04-29T13:42:02;24.40;60.20
63771;DHT22;60282;43.862;18.430;2023-04-29T13:44:28;24.00;60.80
63771;DHT22;60282;43.862;18.430;2023-04-29T13:46:55;24.10;61.30
63771;DHT22;60282;43.862;18.430;2023-04-29T13:49:21;24.70;61.30
63771;DHT22;60282;43.862;18.430;2023-04-29T13:51:47;25.40;60.20
63771;DHT22;60282;43.862;18.430;2023-04-29T13:54:12;26.20;58.80
63771;DHT22;60282;43.862;18.430;2023-04-29T13:56:38;26.70;58.00
63771;DHT22;60282;43.862;18.430;2023-04-29T13:59:04;27.10;57.60
63771;DHT22;60282;43.862;18.430;2023-04-29T14:01:30;27.50;57.10
63771;DHT22;60282;43.862;18.430;2023-04-29T14:03:56;27.90;56.90
63771;DHT22;60282;43.862;18.430;2023-04-29T14:08:48;28.90;55.90
63771;DHT22;60282;43.862;18.430;2023-04-29T14:11:14;29.90;55.80
63771;DHT22;60282;43.862;18.430;2023-04-29T14:13:40;30.50;56.40
63771;DHT22;60282;43.862;18.430;2023-04-29T14:16:06;31.10;55.00
63771;DHT22;60282;43.862;18.430;2023-04-29T14:18:33;31.30;53.00
63771;DHT22;60282;43.862;18.430;2023-04-29T14:20:59;31.70;52.70
63771;DHT22;60282;43.862;18.430;2023-04-29T14:23:25;31.60;51.80
63771;DHT22;60282;43.862;18.430;2023-04-29T14:25:50;30.50;52.00
63771;DHT22;60282;43.862;18.430;2023-04-29T14:28:16;29.90;52.90
63771;DHT22;60282;43.862;18.430;2023-04-29T14:30:42;29.40;53.20
63771;DHT22;60282;43.862;18.430;2023-04-29T14:33:08;28.90;54.10
63771;DHT22;60282;43.862;18.430;2023-04-29T14:35:34;28.30;54.70
63771;DHT22;60282;43.862;18.430;2023-04-29T14:38:00;27.90;55.10
63771;DHT22;60282;43.862;18.430;2023-04-29T14:40:25;27.00;55.90
63771;DHT22;60282;43.862;18.430;2023-04-29T14:42:51;26.60;56.70
63771;DHT22;60282;43.862;18.430;2023-04-29T14:45:17;26.20;57.20
63771;DHT22;60282;43.862;18.430;2023-04-29T14:47:43;26.10;57.70
63771;DHT22;60282;43.862;18.430;2023-04-29T14:50:09;26.50;57.60
63771;DHT22;60282;43.862;18.430;2023-04-29T14:52:35;26.60;57.10
63771;DHT22;60282;43.862;18.430;2023-04-29T14:55:01;26.30;57.30
63771;DHT22;60282;43.862;18.430;2023-04-29T14:57:27;26.10;58.20
63771;DHT22;60282;43.862;18.430;2023-04-29T14:59:55;26.30;58.30
63771;DHT22;60282;43.862;18.430;2023-04-29T15:02:20;26.70;57.50
63771;DHT22;60282;43.862;18.430;2023-04-29T15:04:46;26.90;57.60
63771;DHT22;60282;43.862;18.430;2023-04-29T15:07:13;27.10;57.20
63771;DHT22;60282;43.862;18.430;2023-04-29T15:09:40;27.00;57.20
63771;DHT22;60282;43.862;18.430;2023-04-29T15:12:07;26.70;57.20
63771;DHT22;60282;43.862;18.430;2023-04-29T15:14:33;26.40;57.60
63771;DHT22;60282;43.862;18.430;2023-04-29T15:16:59;25.80;58.30
63771;DHT22;60282;43.862;18.430;2023-04-29T15:19:25;25.60;59.10
63771;DHT22;60282;43.862;18.430;2023-04-29T15:21:51;24.80;59.50
63771;DHT22;60282;43.862;18.430;2023-04-29T15:24:17;24.40;60.80
63771;DHT22;60282;43.862;18.430;2023-04-29T15:26:43;24.10;61.80
63771;DHT22;60282;43.862;18.430;2023-04-29T15:29:09;24.40;61.70
63771;DHT22;60282;43.862;18.430;2023-04-29T15:31:36;25.00;60.80
63771;DHT22;60282;43.862;18.430;2023-04-29T15:34:02;25.40;60.40
63771;DHT22;60282;43.862;18.430;2023-04-29T15:36:29;25.80;59.60
63771;DHT22;60282;43.862;18.430;2023-04-29T15:38:55;26.00;59.20
63771;DHT22;60282;43.862;18.430;2023-04-29T15:41:21;26.00;59.00
63771;DHT22;60282;43.862;18.430;2023-04-29T15:43:50;26.10;59.20